createdAt,value
2023-04-12T00:00:40.227Z,96757.94
2023-04-12T00:03:10.791Z,96756.44
2023-04-12T00:05:38.956Z,96769.19
2023-04-12T00:08:10.888Z,96744.66
2023-04-12T00:10:39.212Z,96748.50
2023-04-12T00:13:08.061Z,96749.81
2023-04-12T00:15:38.188Z,96754.59
2023-04-12T00:18:06.448Z,96750.53
2023-04-12T00:20:34.506Z,96753.91
2023-04-12T00:23:03.900Z,96756.19
2023-04-12T00:25:32.109Z,96749.41
2023-04-12T00:28:00.165Z,96746.31
2023-04-12T00:30:28.320Z,96745.41
2023-04-12T00:32:57.879Z,96736.22
2023-04-12T00:35:28.037Z,96732.06
2023-04-12T00:37:56.577Z,96730.59
2023-04-12T00:40:25.050Z,96737.22
2023-04-12T00:42:53.191Z,96738.78
2023-04-12T00:45:22.158Z,96739.38
2023-04-12T00:47:50.699Z,96740.38
2023-04-12T00:50:21.309Z,96729.00
2023-04-12T00:52:49.541Z,96732.06
2023-04-12T00:55:18.435Z,96729.00
2023-04-12T00:57:46.873Z,96719.00
2023-04-12T01:00:17.211Z,96712.31
2023-04-12T01:02:48.553Z,96718.34
2023-04-12T01:05:22.655Z,96731.91
2023-04-12T01:08:06.775Z,96728.25
2023-04-12T01:10:45.029Z,96722.16
2023-04-12T01:13:21.776Z,96716.59
2023-04-12T01:15:59.946Z,96725.09
2023-04-12T01:18:31.935Z,96726.81
2023-04-12T01:21:08.012Z,96726.19
2023-04-12T01:23:52.837Z,96723.28
2023-04-12T01:26:34.724Z,96724.94
2023-04-12T01:29:11.041Z,96710.69
2023-04-12T01:31:42.324Z,96712.81
2023-04-12T01:34:13.014Z,96710.84
2023-04-12T01:36:43.970Z,96707.97
2023-04-12T01:39:12.443Z,96700.59
2023-04-12T01:41:45.480Z,96691.19
2023-04-12T01:44:18.868Z,96705.28
2023-04-12T01:46:49.794Z,96696.91
2023-04-12T01:49:19.312Z,96694.06
2023-04-12T01:51:53.938Z,96691.19
2023-04-12T01:54:27.111Z,96689.84
2023-04-12T01:56:59.299Z,96691.72
2023-04-12T01:59:33.256Z,96687.56
2023-04-12T02:02:02.375Z,96676.19
2023-04-12T02:04:31.422Z,96685.38
2023-04-12T02:06:59.960Z,96681.53
2023-04-12T02:09:28.161Z,96678.16
2023-04-12T02:11:56.489Z,96675.50
2023-04-12T02:14:25.296Z,96675.59
2023-04-12T02:16:55.957Z,96657.13
2023-04-12T02:19:24.698Z,96652.13
2023-04-12T02:21:53.951Z,96649.19
2023-04-12T02:24:23.702Z,96652.59
2023-04-12T02:26:55.384Z,96646.72
2023-04-12T02:29:23.956Z,96642.66
2023-04-12T02:31:52.686Z,96638.75
2023-04-12T02:34:24.290Z,96640.47
2023-04-12T02:37:00.315Z,96633.78
2023-04-12T02:39:29.316Z,96631.69
2023-04-12T02:41:58.797Z,96625.13
2023-04-12T02:44:27.431Z,96621.69
2023-04-12T02:47:21.630Z,96626.34
2023-04-12T02:49:52.739Z,96632.00
2023-04-12T02:52:23.539Z,96622.34
2023-04-12T02:55:42.310Z,96626.22
2023-04-12T02:58:13.227Z,96622.28
2023-04-12T03:00:50.077Z,96616.88
2023-04-12T03:03:22.627Z,96620.13
2023-04-12T03:05:56.454Z,96625.13
2023-04-12T03:08:25.584Z,96618.75
2023-04-12T03:10:57.315Z,96625.59
2023-04-12T03:13:27.497Z,96624.59
2023-04-12T03:15:58.191Z,96634.69
2023-04-12T03:18:33.408Z,96618.81
2023-04-12T03:21:04.061Z,96626.06
2023-04-12T03:23:32.714Z,96625.59
2023-04-12T03:26:10.746Z,96610.81
2023-04-12T03:28:39.200Z,96609.56
2023-04-12T03:31:08.769Z,96591.13
2023-04-12T03:33:43.155Z,96590.06
2023-04-12T03:36:22.473Z,96587.19
2023-04-12T03:38:57.189Z,96585.66
2023-04-12T03:41:26.695Z,96581.31
2023-04-12T03:43:55.547Z,96577.19
2023-04-12T03:46:24.044Z,96574.03
2023-04-12T03:48:58.044Z,96567.28
2023-04-12T03:51:30.703Z,96562.44
2023-04-12T03:54:04.639Z,96574.13
2023-04-12T03:56:47.861Z,96569.28
2023-04-12T03:59:49.320Z,96562.97
2023-04-12T04:02:22.925Z,96562.22
2023-04-12T04:04:54.349Z,96561.41
2023-04-12T04:07:29.476Z,96560.47
2023-04-12T04:09:58.260Z,96555.59
2023-04-12T04:12:30.911Z,96561.69
2023-04-12T04:14:59.447Z,96561.00
2023-04-12T04:17:32.699Z,96555.81
2023-04-12T04:20:01.390Z,96557.69
2023-04-12T04:22:34.721Z,96559.28
2023-04-12T04:25:06.900Z,96560.16
2023-04-12T04:27:38.559Z,96561.69
2023-04-12T04:30:10.650Z,96566.00
2023-04-12T04:32:44.346Z,96554.03
2023-04-12T04:35:16.926Z,96559.13
2023-04-12T04:38:03.670Z,96555.06
2023-04-12T04:40:58.839Z,96560.03
2023-04-12T04:43:42.742Z,96554.00
2023-04-12T04:46:11.856Z,96554.28
2023-04-12T04:48:41.191Z,96559.59
2023-04-12T04:51:09.579Z,96554.81
2023-04-12T04:53:39.168Z,96564.53
2023-04-12T04:56:09.199Z,96566.63
2023-04-12T04:58:37.813Z,96557.34
2023-04-12T05:01:08.600Z,96549.38
2023-04-12T05:03:37.949Z,96547.72
2023-04-12T05:06:06.924Z,96547.81
2023-04-12T05:08:36.286Z,96553.19
2023-04-12T05:11:06.944Z,96552.88
2023-04-12T05:13:36.118Z,96553.94
2023-04-12T05:16:08.154Z,96552.69
2023-04-12T05:18:36.698Z,96549.53
2023-04-12T05:21:05.878Z,96550.69
2023-04-12T05:23:38.025Z,96547.13
2023-04-12T05:26:08.695Z,96548.78
2023-04-12T05:28:37.594Z,96552.41
2023-04-12T05:31:14.353Z,96555.88
2023-04-12T05:33:42.509Z,96546.66
2023-04-12T05:36:11.333Z,96538.41
2023-04-12T05:38:39.812Z,96544.78
2023-04-12T05:41:14.357Z,96545.72
2023-04-12T05:43:42.895Z,96544.34
2023-04-12T05:46:11.942Z,96535.91
2023-04-12T05:48:40.747Z,96538.13
2023-04-12T05:51:09.026Z,96531.78
2023-04-12T05:53:37.885Z,96528.47
2023-04-12T05:56:08.681Z,96522.13
2023-04-12T05:58:38.125Z,96513.91
2023-04-12T06:01:07.575Z,96512.69
2023-04-12T06:03:36.235Z,96513.16
2023-04-12T06:06:09.995Z,96507.53
2023-04-12T06:08:39.502Z,96508.69
2023-04-12T06:11:11.504Z,96495.16
2023-04-12T06:13:41.545Z,96495.41
2023-04-12T06:16:10.301Z,96484.72
2023-04-12T06:18:38.981Z,96486.66
2023-04-12T06:21:07.326Z,96477.06
2023-04-12T06:23:36.479Z,96476.75
2023-04-12T06:26:05.607Z,96472.78
2023-04-12T06:28:34.829Z,96474.00
2023-04-12T06:31:04.597Z,96461.69
2023-04-12T06:33:37.811Z,96463.78
2023-04-12T06:36:11.512Z,96457.88
2023-04-12T06:38:40.331Z,96448.00
2023-04-12T06:41:08.750Z,96447.69
2023-04-12T06:43:37.692Z,96443.69
2023-04-12T06:46:09.226Z,96441.84
2023-04-12T06:48:37.436Z,96441.16
2023-04-12T06:51:06.458Z,96436.41
2023-04-12T06:53:35.203Z,96432.78
2023-04-12T06:56:05.252Z,96438.13
2023-04-12T06:58:33.713Z,96435.50
2023-04-12T07:01:07.945Z,96430.19
2023-04-12T07:03:37.009Z,96421.97
2023-04-12T07:06:17.810Z,96410.19
2023-04-12T07:08:53.199Z,96390.13
2023-04-12T07:11:23.122Z,96387.50
2023-04-12T07:13:52.103Z,96384.41
2023-04-12T07:16:21.495Z,96391.31
2023-04-12T07:18:49.864Z,96384.09
2023-04-12T07:21:18.880Z,96387.91
2023-04-12T07:23:51.251Z,96376.28
2023-04-12T07:26:20.195Z,96377.66
2023-04-12T07:28:48.294Z,96375.75
2023-04-12T07:31:16.440Z,96380.19
2023-04-12T07:33:46.364Z,96381.78
2023-04-12T07:36:16.733Z,96384.13
2023-04-12T07:38:45.280Z,96371.53
2023-04-12T07:41:13.514Z,96367.72
2023-04-12T07:43:41.758Z,96372.19
2023-04-12T07:46:10.629Z,96369.13
2023-04-12T07:48:39.121Z,96370.31
2023-04-12T07:51:09.433Z,96372.28
2023-04-12T07:53:37.495Z,96367.56
2023-04-12T07:56:07.167Z,96367.47
2023-04-12T07:58:35.679Z,96352.25
2023-04-12T08:01:04.332Z,96361.84
2023-04-12T08:03:32.750Z,96357.53
2023-04-12T08:06:01.691Z,96347.03
2023-04-12T08:08:31.617Z,96359.09
2023-04-12T08:10:59.779Z,96357.06
2023-04-12T08:13:27.795Z,96351.44
2023-04-12T08:15:56.249Z,96347.97
2023-04-12T08:18:24.589Z,96343.09
2023-04-12T08:20:52.747Z,96340.25
2023-04-12T08:23:21.492Z,96341.16
2023-04-12T08:25:51.476Z,96343.91
2023-04-12T08:28:19.699Z,96342.09
2023-04-12T08:30:47.848Z,96331.38
2023-04-12T08:33:17.357Z,96332.50
2023-04-12T08:35:46.309Z,96331.66
2023-04-12T08:38:14.687Z,96323.56
2023-04-12T08:40:46.601Z,96327.13
2023-04-12T08:43:18.999Z,96323.97
2023-04-12T08:45:47.808Z,96324.09
2023-04-12T08:48:18.169Z,96314.28
2023-04-12T08:50:50.610Z,96319.13
2023-04-12T08:53:19.311Z,96312.22
2023-04-12T08:55:47.485Z,96300.47
2023-04-12T08:58:17.378Z,96286.53
2023-04-12T09:00:46.297Z,96290.88
2023-04-12T09:03:14.675Z,96295.25
2023-04-12T09:05:43.315Z,96283.09
2023-04-12T09:08:12.163Z,96284.09
2023-04-12T09:10:42.158Z,96269.88
2023-04-12T09:13:10.981Z,96273.78
2023-04-12T09:15:50.067Z,96270.38
2023-04-12T09:18:18.277Z,96265.59
2023-04-12T09:20:46.509Z,96258.13
2023-04-12T09:23:19.562Z,96254.28
2023-04-12T09:25:50.362Z,96248.81
2023-04-12T09:28:21.513Z,96245.28
2023-04-12T09:30:52.744Z,96237.22
2023-04-12T09:33:22.377Z,96250.16
2023-04-12T09:35:51.327Z,96237.03
2023-04-12T09:38:19.616Z,96238.53
2023-04-12T09:40:48.752Z,96246.59
2023-04-12T09:43:17.331Z,96235.81
2023-04-12T09:45:45.546Z,96223.34
2023-04-12T09:48:22.107Z,96231.91
2023-04-12T09:50:59.480Z,96235.72
2023-04-12T09:53:28.248Z,96223.22
2023-04-12T09:55:58.315Z,96220.03
2023-04-12T09:58:30.612Z,96228.22
2023-04-12T10:01:02.233Z,96218.09
2023-04-12T10:03:32.249Z,96211.03
2023-04-12T10:06:00.822Z,96224.47
2023-04-12T10:08:29.260Z,96212.56
2023-04-12T10:10:58.187Z,96211.97
2023-04-12T10:13:27.705Z,96213.69
2023-04-12T10:15:56.826Z,96187.41
2023-04-12T10:18:27.480Z,96187.13
2023-04-12T10:20:57.261Z,96178.88
2023-04-12T10:23:25.601Z,96172.28
2023-04-12T10:25:55.796Z,96165.06
2023-04-12T10:28:24.539Z,96163.50
2023-04-12T10:30:54.950Z,96159.41
2023-04-12T10:33:27.608Z,96144.44
2023-04-12T10:36:03.965Z,96152.72
2023-04-12T10:38:46.807Z,96137.34
2023-04-12T10:41:19.247Z,96143.56
2023-04-12T10:43:48.200Z,96133.81
2023-04-12T10:46:51.159Z,96134.38
2023-04-12T10:49:20.379Z,96127.59
2023-04-12T10:52:23.542Z,96108.03
2023-04-12T10:54:51.902Z,96115.78
2023-04-12T10:57:49.620Z,96108.28
2023-04-12T11:00:20.611Z,96115.19
2023-04-12T11:03:11.928Z,96098.97
2023-04-12T11:06:09.186Z,96099.09
2023-04-12T11:09:20.677Z,96099.72
2023-04-12T11:11:49.561Z,96094.38
2023-04-12T11:14:18.283Z,96094.63
2023-04-12T11:17:22.652Z,96080.50
2023-04-12T11:19:57.603Z,96086.66
2023-04-12T11:22:29.232Z,96081.75
2023-04-12T11:25:00.503Z,96071.22
2023-04-12T11:27:31.970Z,96070.16
2023-04-12T11:30:02.083Z,96055.91
2023-04-12T11:32:32.358Z,96063.88
2023-04-12T11:35:00.523Z,96056.47
2023-04-12T11:37:33.854Z,96047.44
2023-04-12T11:40:06.646Z,96050.22
2023-04-12T11:42:35.238Z,96045.81
2023-04-12T11:45:10.281Z,96046.16
2023-04-12T11:47:44.870Z,96044.75
2023-04-12T11:50:13.400Z,96043.78
2023-04-12T11:52:42.373Z,96035.38
2023-04-12T11:55:12.689Z,96049.00
2023-04-12T11:57:40.821Z,96028.88
2023-04-12T12:00:10.921Z,96032.00
2023-04-12T12:02:52.306Z,96023.41
2023-04-12T12:05:30.734Z,96033.34
2023-04-12T12:08:01.255Z,96014.97
2023-04-12T12:10:43.758Z,96012.59
2023-04-12T12:13:15.470Z,96009.63
2023-04-12T12:15:46.428Z,95994.06
2023-04-12T12:18:14.619Z,95997.69
2023-04-12T12:20:43.861Z,95976.75
2023-04-12T12:23:12.329Z,95986.50
2023-04-12T12:25:47.164Z,95989.44
2023-04-12T12:28:16.061Z,95983.06
2023-04-12T12:30:44.379Z,95967.41
2023-04-12T12:33:14.106Z,95969.03
2023-04-12T12:35:42.241Z,95969.88
2023-04-12T12:38:11.702Z,95969.44
2023-04-12T12:40:41.637Z,95962.69
2023-04-12T12:43:19.825Z,95960.53
2023-04-12T12:45:48.114Z,95962.47
2023-04-12T12:48:16.610Z,95947.97
2023-04-12T12:50:45.175Z,95953.59
2023-04-12T12:53:13.385Z,95940.47
2023-04-12T12:55:43.422Z,95942.72
2023-04-12T12:58:11.592Z,95938.81
2023-04-12T13:00:41.379Z,95926.56
2023-04-12T13:03:10.140Z,95918.47
2023-04-12T13:05:38.762Z,95926.78
2023-04-12T13:08:06.902Z,95931.13
2023-04-12T13:10:35.155Z,95930.03
2023-04-12T13:13:05.164Z,95920.16
2023-04-12T13:15:33.728Z,95906.63
2023-04-12T13:18:02.163Z,95901.59
2023-04-12T13:20:33.175Z,95904.81
2023-04-12T13:23:01.831Z,95888.31
2023-04-12T13:25:30.128Z,95889.84
2023-04-12T13:27:58.423Z,95879.31
2023-04-12T13:30:28.305Z,95873.97
2023-04-12T13:32:56.647Z,95868.28
2023-04-12T13:35:24.631Z,95870.81
2023-04-12T13:37:53.142Z,95865.09
2023-04-12T13:40:21.853Z,95870.00
2023-04-12T13:42:50.060Z,95857.25
2023-04-12T13:45:18.247Z,95858.84
2023-04-12T13:47:47.946Z,95845.94
2023-04-12T13:50:16.118Z,95843.63
2023-04-12T13:52:44.353Z,95842.97
2023-04-12T13:55:12.509Z,95840.44
2023-04-12T13:57:40.715Z,95834.94
2023-04-12T14:00:10.317Z,95828.81
2023-04-12T14:02:38.597Z,95821.19
2023-04-12T14:05:09.679Z,95838.22
2023-04-12T14:07:37.679Z,95840.94
2023-04-12T14:10:06.628Z,95835.25
2023-04-12T14:12:34.725Z,95832.88
2023-04-12T14:15:02.972Z,95831.34
2023-04-12T14:17:33.027Z,95833.63
2023-04-12T14:20:01.467Z,95822.75
2023-04-12T14:22:31.571Z,95828.81
2023-04-12T14:24:59.784Z,95826.25
2023-04-12T14:27:28.236Z,95818.59
2023-04-12T14:29:56.766Z,95817.91
2023-04-12T14:32:25.315Z,95812.41
2023-04-12T14:34:53.566Z,95808.16
2023-04-12T14:37:22.007Z,95803.47
2023-04-12T14:39:52.477Z,95811.34
2023-04-12T14:42:20.964Z,95808.44
2023-04-12T14:44:49.010Z,95807.41
2023-04-12T14:47:17.374Z,95804.91
2023-04-12T14:49:45.572Z,95809.75
2023-04-12T14:52:13.807Z,95804.03
2023-04-12T14:54:41.948Z,95802.84
2023-04-12T14:57:12.545Z,95807.88
2023-04-12T14:59:41.008Z,95801.31
2023-04-12T15:02:09.304Z,95802.53
2023-04-12T15:04:37.840Z,95794.00
2023-04-12T15:07:06.167Z,95794.06
2023-04-12T15:09:34.396Z,95790.06
2023-04-12T15:12:02.441Z,95792.19
2023-04-12T15:14:32.121Z,95787.59
2023-04-12T15:17:00.308Z,95792.75
2023-04-12T15:19:28.667Z,95792.06
2023-04-12T15:21:57.090Z,95788.59
2023-04-12T15:24:26.173Z,95784.00
2023-04-12T15:26:54.653Z,95784.00
2023-04-12T15:29:24.694Z,95775.44
2023-04-12T15:31:56.152Z,95777.78
2023-04-12T15:34:25.317Z,95772.28
2023-04-12T15:36:53.564Z,95775.88
2023-04-12T15:39:22.266Z,95776.72
2023-04-12T15:41:50.560Z,95781.88
2023-04-12T15:44:18.628Z,95776.34
2023-04-12T15:46:56.222Z,95780.41
2023-04-12T15:49:37.917Z,95781.09
2023-04-12T15:52:06.454Z,95760.53
2023-04-12T15:54:35.100Z,95767.81
2023-04-12T15:57:09.577Z,95768.59
2023-04-12T15:59:38.097Z,95762.16
2023-04-12T16:02:09.785Z,95770.78
2023-04-12T16:04:40.693Z,95763.16
2023-04-12T16:07:09.254Z,95765.13
2023-04-12T16:09:39.717Z,95760.69
2023-04-12T16:12:08.152Z,95768.03
2023-04-12T16:14:37.140Z,95760.94
2023-04-12T16:17:05.614Z,95751.06
2023-04-12T16:19:33.710Z,95744.72
2023-04-12T16:22:03.916Z,95752.63
2023-04-12T16:24:32.092Z,95751.00
2023-04-12T16:27:00.688Z,95758.81
2023-04-12T16:29:29.124Z,95757.53
2023-04-12T16:31:57.922Z,95743.31
2023-04-12T16:34:26.545Z,95746.81
2023-04-12T16:36:54.798Z,95738.00
2023-04-12T16:39:24.506Z,95744.47
2023-04-12T16:41:52.625Z,95734.69
2023-04-12T16:44:21.164Z,95736.88
2023-04-12T16:46:49.219Z,95731.53
2023-04-12T16:49:19.645Z,95732.69
2023-04-12T16:51:48.124Z,95718.69
2023-04-12T16:54:16.591Z,95736.66
2023-04-12T16:56:47.439Z,95733.91
2023-04-12T16:59:15.698Z,95732.50
2023-04-12T17:01:44.350Z,95732.69
2023-04-12T17:04:13.265Z,95728.63
2023-04-12T17:06:44.512Z,95732.72
2023-04-12T17:09:13.386Z,95738.28
2023-04-12T17:11:42.121Z,95736.81
2023-04-12T17:14:13.997Z,95736.84
2023-04-12T17:17:12.225Z,95738.94
2023-04-12T17:19:45.399Z,95728.69
2023-04-12T17:22:14.414Z,95715.16
2023-04-12T17:24:43.837Z,95715.97
2023-04-12T17:27:12.470Z,95719.56
2023-04-12T17:29:43.078Z,95712.25
2023-04-12T17:32:13.056Z,95713.56
2023-04-12T17:34:42.520Z,95717.97
2023-04-12T17:37:10.863Z,95711.13
2023-04-12T17:39:39.026Z,95708.88
2023-04-12T17:42:07.242Z,95712.28
2023-04-12T17:44:35.696Z,95710.66
2023-04-12T17:47:05.525Z,95718.66
2023-04-12T17:49:35.857Z,95710.34
2023-04-12T17:52:04.543Z,95718.34
2023-04-12T17:54:33.602Z,95717.53
2023-04-12T17:57:02.387Z,95725.50
2023-04-12T17:59:30.685Z,95710.34
2023-04-12T18:01:59.014Z,95709.72
2023-04-12T18:04:29.204Z,95708.72
2023-04-12T18:06:58.227Z,95713.28
2023-04-12T18:09:27.393Z,95706.59
2023-04-12T18:11:56.692Z,95724.38
2023-04-12T18:14:25.026Z,95713.13
2023-04-12T18:16:54.069Z,95716.88
2023-04-12T18:19:23.232Z,95724.34
2023-04-12T18:21:53.329Z,95727.63
2023-04-12T18:24:21.713Z,95726.34
2023-04-12T18:26:51.196Z,95730.72
2023-04-12T18:29:19.622Z,95727.16
2023-04-12T18:31:47.875Z,95725.19
2023-04-12T18:34:18.971Z,95724.38
2023-04-12T18:36:47.674Z,95723.72
2023-04-12T18:39:17.878Z,95731.69
2023-04-12T18:41:46.315Z,95742.94
2023-04-12T18:44:15.729Z,95744.38
2023-04-12T18:46:43.975Z,95736.06
2023-04-12T18:49:12.073Z,95742.44
2023-04-12T18:51:40.202Z,95747.78
2023-04-12T18:54:12.931Z,95742.38
2023-04-12T18:56:43.295Z,95737.31
2023-04-12T18:59:17.655Z,95736.97
2023-04-12T19:01:46.470Z,95732.59
2023-04-12T19:04:16.568Z,95749.38
2023-04-12T19:06:45.335Z,95738.13
2023-04-12T19:09:13.727Z,95740.25
2023-04-12T19:11:43.623Z,95746.25
2023-04-12T19:14:12.014Z,95750.81
2023-04-12T19:16:40.530Z,95739.56
2023-04-12T19:19:09.109Z,95740.53
2023-04-12T19:21:37.926Z,95738.81
2023-04-12T19:24:06.937Z,95730.34
2023-04-12T19:26:36.926Z,95733.47
2023-04-12T19:29:07.156Z,95728.84
2023-04-12T19:31:36.083Z,95729.97
2023-04-12T19:34:05.647Z,95722.94
2023-04-12T19:36:34.559Z,95719.09
2023-04-12T19:39:02.743Z,95721.06
2023-04-12T19:41:31.570Z,95720.25
2023-04-12T19:43:59.858Z,95718.44
2023-04-12T19:46:29.865Z,95717.31
2023-04-12T19:48:59.043Z,95712.47
2023-04-12T19:51:27.589Z,95700.59
2023-04-12T19:53:55.697Z,95691.50
2023-04-12T19:56:24.495Z,95699.63
2023-04-12T19:58:54.655Z,95686.44
2023-04-12T20:01:22.784Z,95682.69
2023-04-12T20:03:53.456Z,95681.22
2023-04-12T20:06:22.153Z,95671.47
2023-04-12T20:08:50.317Z,95675.06
2023-04-12T20:11:18.874Z,95663.53
2023-04-12T20:13:47.076Z,95662.84
2023-04-12T20:16:16.443Z,95662.84
2023-04-12T20:18:44.813Z,95649.53
2023-04-12T20:21:14.169Z,95646.09
2023-04-12T20:23:43.442Z,95648.69
2023-04-12T20:26:11.528Z,95648.53
2023-04-12T20:28:40.042Z,95644.94
2023-04-12T20:31:36.961Z,95645.31
2023-04-12T20:34:30.418Z,95641.88
2023-04-12T20:37:00.238Z,95635.19
2023-04-12T20:39:29.579Z,95631.28
2023-04-12T20:42:01.244Z,95631.28
2023-04-12T20:44:29.624Z,95633.56
2023-04-12T20:46:58.717Z,95643.31
2023-04-12T20:49:28.056Z,95641.22
2023-04-12T20:51:57.225Z,95637.63
2023-04-12T20:54:30.012Z,95649.34
2023-04-12T20:57:00.124Z,95651.28
2023-04-12T20:59:30.531Z,95660.88
2023-04-12T21:01:59.448Z,95661.38
2023-04-12T21:04:28.918Z,95663.50
2023-04-12T21:06:57.668Z,95673.28
2023-04-12T21:09:27.929Z,95673.59
2023-04-12T21:11:58.049Z,95679.78
2023-04-12T21:14:28.600Z,95683.69
2023-04-12T21:17:01.675Z,95683.84
2023-04-12T21:19:33.498Z,95670.50
2023-04-12T21:22:05.493Z,95681.25
2023-04-12T21:24:39.177Z,95675.22
2023-04-12T21:27:08.947Z,95681.25
2023-04-12T21:29:41.706Z,95689.06
2023-04-12T21:32:10.936Z,95683.84
2023-04-12T21:34:41.305Z,95686.94
2023-04-12T21:37:13.488Z,95683.38
2023-04-12T21:39:47.021Z,95678.47
2023-04-12T21:42:19.174Z,95675.53
2023-04-12T21:44:51.334Z,95679.78
2023-04-12T21:47:22.700Z,95681.75
2023-04-12T21:49:56.414Z,95670.00
2023-04-12T21:52:31.717Z,95671.31
2023-04-12T21:55:04.149Z,95668.03
2023-04-12T21:57:36.211Z,95660.91
2023-04-12T22:00:08.808Z,95661.22
2023-04-12T22:03:14.705Z,95663.50
2023-04-12T22:05:51.155Z,95656.66
2023-04-12T22:08:26.292Z,95658.59
2023-04-12T22:10:55.965Z,95660.72
2023-04-12T22:13:25.017Z,95651.78
2023-04-12T22:15:53.718Z,95639.75
2023-04-12T22:18:22.122Z,95643.16
2023-04-12T22:20:51.034Z,95655.97
2023-04-12T22:23:19.514Z,95654.03
2023-04-12T22:25:49.636Z,95652.09
2023-04-12T22:28:19.200Z,95657.44
2023-04-12T22:30:48.663Z,95648.34
2023-04-12T22:33:17.523Z,95653.72
2023-04-12T22:35:46.455Z,95655.97
2023-04-12T22:38:15.802Z,95656.97
2023-04-12T22:40:43.898Z,95674.53
2023-04-12T22:43:18.322Z,95673.91
2023-04-12T22:45:48.364Z,95669.47
2023-04-12T22:48:16.656Z,95673.22
2023-04-12T22:50:45.852Z,95676.47
2023-04-12T22:53:14.178Z,95671.25
2023-04-12T22:55:43.257Z,95661.19
2023-04-12T22:58:11.458Z,95665.09
2023-04-12T23:00:40.504Z,95663.59
2023-04-12T23:03:11.341Z,95661.53
2023-04-12T23:05:44.923Z,95665.38
2023-04-12T23:08:14.832Z,95664.41
2023-04-12T23:10:43.289Z,95647.97
2023-04-12T23:13:12.182Z,95634.97
2023-04-12T23:15:41.560Z,95634.63
2023-04-12T23:18:12.362Z,95641.94
2023-04-12T23:20:40.677Z,95652.34
2023-04-12T23:23:10.169Z,95657.22
2023-04-12T23:25:42.025Z,95665.84
2023-04-12T23:28:13.518Z,95667.81
2023-04-12T23:30:44.557Z,95669.91
2023-04-12T23:33:14.620Z,95668.00
2023-04-12T23:35:43.852Z,95679.66
2023-04-12T23:38:15.857Z,95690.56
2023-04-12T23:40:44.357Z,95687.28
2023-04-12T23:43:12.740Z,95689.09
2023-04-12T23:45:41.543Z,95692.16
2023-04-12T23:48:09.751Z,95692.34
2023-04-12T23:50:40.541Z,95683.38
2023-04-12T23:53:08.880Z,95686.00
2023-04-12T23:55:37.118Z,95690.88
2023-04-12T23:58:05.546Z,95684.50
